sensor_id;sensor_type;location;lat;lon;timestamp;P1;durP1;ratioP1;P2;durP2;ratioP2
21239;SDS011;10778;48.962;9.018;2023-05-10T00:00:28;0.40;;;0.40;;
21239;SDS011;10778;48.962;9.018;2023-05-10T00:02:54;1.25;;;0.57;;
21239;SDS011;10778;48.962;9.018;2023-05-10T00:05:20;1.42;;;0.50;;
21239;SDS011;10778;48.962;9.018;2023-05-10T00:07:46;0.73;;;0.50;;
21239;SDS011;10778;48.962;9.018;2023-05-10T00:10:12;0.77;;;0.40;;
21239;SDS011;10778;48.962;9.018;2023-05-10T00:12:38;1.38;;;0.50;;
21239;SDS011;10778;48.962;9.018;2023-05-10T00:15:04;3.30;;;0.40;;
21239;SDS011;10778;48.962;9.018;2023-05-10T00:17:31;0.73;;;0.50;;
21239;SDS011;10778;48.962;9.018;2023-05-10T00:19:57;4.18;;;0.47;;
21239;SDS011;10778;48.962;9.018;2023-05-10T00:22:23;1.15;;;0.50;;
21239;SDS011;10778;48.962;9.018;2023-05-10T00:24:49;1.77;;;0.60;;
21239;SDS011;10778;48.962;9.018;2023-05-10T00:27:15;0.60;;;0.50;;
21239;SDS011;10778;48.962;9.018;2023-05-10T00:29:41;2.33;;;0.70;;
21239;SDS011;10778;48.962;9.018;2023-05-10T00:32:07;1.08;;;0.65;;
21239;SDS011;10778;48.962;9.018;2023-05-10T00:34:33;0.68;;;0.50;;
21239;SDS011;10778;48.962;9.018;2023-05-10T00:37:00;1.00;;;0.60;;
21239;SDS011;10778;48.962;9.018;2023-05-10T00:39:26;0.70;;;0.60;;
21239;SDS011;10778;48.962;9.018;2023-05-10T00:41:54;0.68;;;0.57;;
21239;SDS011;10778;48.962;9.018;2023-05-10T00:44:21;2.70;;;0.70;;
21239;SDS011;10778;48.962;9.018;2023-05-10T00:46:47;3.13;;;0.80;;
21239;SDS011;10778;48.962;9.018;2023-05-10T00:49:13;1.15;;;0.70;;
21239;SDS011;10778;48.962;9.018;2023-05-10T00:51:40;2.35;;;0.90;;
21239;SDS011;10778;48.962;9.018;2023-05-10T00:54:09;1.17;;;0.82;;
21239;SDS011;10778;48.962;9.018;2023-05-10T00:56:37;0.98;;;0.80;;
21239;SDS011;10778;48.962;9.018;2023-05-10T00:59:04;0.95;;;0.85;;
21239;SDS011;10778;48.962;9.018;2023-05-10T01:01:30;1.73;;;0.80;;
21239;SDS011;10778;48.962;9.018;2023-05-10T01:03:56;1.10;;;1.00;;
21239;SDS011;10778;48.962;9.018;2023-05-10T01:06:23;1.13;;;1.00;;
21239;SDS011;10778;48.962;9.018;2023-05-10T01:08:49;2.65;;;1.20;;
21239;SDS011;10778;48.962;9.018;2023-05-10T01:11:15;1.60;;;1.25;;
21239;SDS011;10778;48.962;9.018;2023-05-10T01:13:42;1.58;;;1.13;;
21239;SDS011;10778;48.962;9.018;2023-05-10T01:16:11;1.35;;;1.10;;
21239;SDS011;10778;48.962;9.018;2023-05-10T01:18:38;1.23;;;1.13;;
21239;SDS011;10778;48.962;9.018;2023-05-10T01:21:17;1.83;;;1.15;;
21239;SDS011;10778;48.962;9.018;2023-05-10T01:35:25;2.17;;;1.40;;
21239;SDS011;10778;48.962;9.018;2023-05-10T01:38:04;1.35;;;1.25;;
21239;SDS011;10778;48.962;9.018;2023-05-10T01:40:42;2.85;;;1.60;;
21239;SDS011;10778;48.962;9.018;2023-05-10T01:43:34;1.98;;;1.65;;
21239;SDS011;10778;48.962;9.018;2023-05-10T01:46:07;2.17;;;1.30;;
21239;SDS011;10778;48.962;9.018;2023-05-10T01:48:37;1.45;;;1.35;;
21239;SDS011;10778;48.962;9.018;2023-05-10T01:51:11;1.83;;;1.60;;
21239;SDS011;10778;48.962;9.018;2023-05-10T01:53:41;3.05;;;1.42;;
21239;SDS011;10778;48.962;9.018;2023-05-10T01:56:08;1.67;;;1.50;;
21239;SDS011;10778;48.962;9.018;2023-05-10T01:58:37;1.50;;;1.40;;
21239;SDS011;10778;48.962;9.018;2023-05-10T02:01:06;1.50;;;1.40;;
21239;SDS011;10778;48.962;9.018;2023-05-10T02:03:33;2.17;;;1.60;;
21239;SDS011;10778;48.962;9.018;2023-05-10T02:06:03;1.58;;;1.40;;
21239;SDS011;10778;48.962;9.018;2023-05-10T02:08:30;2.10;;;1.60;;
21239;SDS011;10778;48.962;9.018;2023-05-10T02:10:59;1.73;;;1.50;;
21239;SDS011;10778;48.962;9.018;2023-05-10T02:13:27;1.63;;;1.40;;
21239;SDS011;10778;48.962;9.018;2023-05-10T02:15:55;1.88;;;1.60;;
21239;SDS011;10778;48.962;9.018;2023-05-10T02:18:23;1.63;;;1.52;;
21239;SDS011;10778;48.962;9.018;2023-05-10T02:20:51;2.28;;;1.40;;
21239;SDS011;10778;48.962;9.018;2023-05-10T02:23:19;2.80;;;1.50;;
21239;SDS011;10778;48.962;9.018;2023-05-10T02:25:46;2.85;;;1.70;;
21239;SDS011;10778;48.962;9.018;2023-05-10T02:28:13;1.80;;;1.40;;
21239;SDS011;10778;48.962;9.018;2023-05-10T02:30:41;1.67;;;1.50;;
21239;SDS011;10778;48.962;9.018;2023-05-10T02:33:08;4.40;;;1.65;;
21239;SDS011;10778;48.962;9.018;2023-05-10T02:35:35;2.15;;;1.30;;
21239;SDS011;10778;48.962;9.018;2023-05-10T02:38:02;3.30;;;1.50;;
21239;SDS011;10778;48.962;9.018;2023-05-10T02:40:29;4.18;;;1.70;;
21239;SDS011;10778;48.962;9.018;2023-05-10T02:42:57;1.90;;;1.70;;
21239;SDS011;10778;48.962;9.018;2023-05-10T02:45:26;2.70;;;1.80;;
21239;SDS011;10778;48.962;9.018;2023-05-10T02:47:54;2.33;;;1.90;;
21239;SDS011;10778;48.962;9.018;2023-05-10T02:50:21;2.42;;;1.67;;
21239;SDS011;10778;48.962;9.018;2023-05-10T02:52:51;3.00;;;1.80;;
21239;SDS011;10778;48.962;9.018;2023-05-10T02:55:21;3.10;;;1.88;;
21239;SDS011;10778;48.962;9.018;2023-05-10T02:57:52;2.13;;;1.77;;
21239;SDS011;10778;48.962;9.018;2023-05-10T03:00:24;2.60;;;2.13;;
21239;SDS011;10778;48.962;9.018;2023-05-10T03:02:50;2.72;;;2.00;;
21239;SDS011;10778;48.962;9.018;2023-05-10T03:05:17;2.30;;;2.10;;
21239;SDS011;10778;48.962;9.018;2023-05-10T03:07:43;2.15;;;1.95;;
21239;SDS011;10778;48.962;9.018;2023-05-10T03:10:11;2.53;;;2.20;;
21239;SDS011;10778;48.962;9.018;2023-05-10T03:12:43;3.67;;;2.17;;
21239;SDS011;10778;48.962;9.018;2023-05-10T03:15:37;3.10;;;2.45;;
21239;SDS011;10778;48.962;9.018;2023-05-10T03:20:56;4.15;;;2.60;;
21239;SDS011;10778;48.962;9.018;2023-05-10T03:26:00;3.55;;;2.65;;
21239;SDS011;10778;48.962;9.018;2023-05-10T03:28:29;3.10;;;2.80;;
21239;SDS011;10778;48.962;9.018;2023-05-10T03:30:55;3.60;;;3.13;;
21239;SDS011;10778;48.962;9.018;2023-05-10T03:33:22;3.63;;;3.33;;
21239;SDS011;10778;48.962;9.018;2023-05-10T03:35:49;4.85;;;3.03;;
21239;SDS011;10778;48.962;9.018;2023-05-10T03:38:15;6.13;;;3.22;;
21239;SDS011;10778;48.962;9.018;2023-05-10T03:40:41;4.30;;;3.67;;
21239;SDS011;10778;48.962;9.018;2023-05-10T03:43:08;4.45;;;3.80;;
21239;SDS011;10778;48.962;9.018;2023-05-10T03:45:34;4.45;;;3.83;;
21239;SDS011;10778;48.962;9.018;2023-05-10T03:48:00;4.00;;;3.70;;
21239;SDS011;10778;48.962;9.018;2023-05-10T03:50:26;4.68;;;3.85;;
21239;SDS011;10778;48.962;9.018;2023-05-10T03:52:53;4.13;;;3.72;;
21239;SDS011;10778;48.962;9.018;2023-05-10T03:55:19;4.95;;;3.72;;
21239;SDS011;10778;48.962;9.018;2023-05-10T03:57:45;5.28;;;3.47;;
21239;SDS011;10778;48.962;9.018;2023-05-10T04:00:11;5.15;;;3.80;;
21239;SDS011;10778;48.962;9.018;2023-05-10T04:02:40;4.30;;;3.65;;
21239;SDS011;10778;48.962;9.018;2023-05-10T04:05:09;4.35;;;3.95;;
21239;SDS011;10778;48.962;9.018;2023-05-10T04:07:35;5.32;;;4.28;;
21239;SDS011;10778;48.962;9.018;2023-05-10T04:10:02;6.18;;;4.45;;
21239;SDS011;10778;48.962;9.018;2023-05-10T04:12:28;4.88;;;3.83;;
21239;SDS011;10778;48.962;9.018;2023-05-10T04:14:54;4.32;;;3.50;;
21239;SDS011;10778;48.962;9.018;2023-05-10T04:17:20;3.83;;;3.47;;
21239;SDS011;10778;48.962;9.018;2023-05-10T04:19:46;4.18;;;3.78;;
21239;SDS011;10778;48.962;9.018;2023-05-10T04:22:12;4.25;;;3.90;;
21239;SDS011;10778;48.962;9.018;2023-05-10T04:24:38;6.55;;;4.30;;
21239;SDS011;10778;48.962;9.018;2023-05-10T04:27:04;4.90;;;3.58;;
21239;SDS011;10778;48.962;9.018;2023-05-10T04:29:30;3.50;;;3.13;;
21239;SDS011;10778;48.962;9.018;2023-05-10T04:31:56;3.67;;;3.05;;
21239;SDS011;10778;48.962;9.018;2023-05-10T04:34:22;3.20;;;2.90;;
21239;SDS011;10778;48.962;9.018;2023-05-10T04:36:48;4.50;;;2.70;;
21239;SDS011;10778;48.962;9.018;2023-05-10T04:39:14;2.85;;;2.63;;
21239;SDS011;10778;48.962;9.018;2023-05-10T04:41:40;3.90;;;2.78;;
21239;SDS011;10778;48.962;9.018;2023-05-10T04:44:06;3.53;;;2.70;;
21239;SDS011;10778;48.962;9.018;2023-05-10T04:46:32;3.75;;;2.65;;
21239;SDS011;10778;48.962;9.018;2023-05-10T04:48:58;4.60;;;2.90;;
21239;SDS011;10778;48.962;9.018;2023-05-10T04:51:24;4.15;;;2.90;;
21239;SDS011;10778;48.962;9.018;2023-05-10T04:53:50;3.10;;;2.80;;
21239;SDS011;10778;48.962;9.018;2023-05-10T04:56:16;5.00;;;3.20;;
21239;SDS011;10778;48.962;9.018;2023-05-10T04:58:42;4.00;;;3.42;;
21239;SDS011;10778;48.962;9.018;2023-05-10T05:01:08;3.40;;;2.97;;
21239;SDS011;10778;48.962;9.018;2023-05-10T05:03:36;3.70;;;3.33;;
21239;SDS011;10778;48.962;9.018;2023-05-10T05:06:02;3.83;;;2.95;;
21239;SDS011;10778;48.962;9.018;2023-05-10T05:08:29;3.97;;;3.40;;
21239;SDS011;10778;48.962;9.018;2023-05-10T05:10:55;3.78;;;3.20;;
21239;SDS011;10778;48.962;9.018;2023-05-10T05:13:21;4.80;;;3.03;;
21239;SDS011;10778;48.962;9.018;2023-05-10T05:15:47;4.22;;;3.25;;
21239;SDS011;10778;48.962;9.018;2023-05-10T05:18:13;3.40;;;2.95;;
21239;SDS011;10778;48.962;9.018;2023-05-10T05:20:39;5.10;;;3.22;;
21239;SDS011;10778;48.962;9.018;2023-05-10T05:23:05;4.68;;;2.83;;
21239;SDS011;10778;48.962;9.018;2023-05-10T05:25:31;4.85;;;3.00;;
21239;SDS011;10778;48.962;9.018;2023-05-10T05:27:57;3.55;;;2.83;;
21239;SDS011;10778;48.962;9.018;2023-05-10T05:30:23;3.70;;;3.10;;
21239;SDS011;10778;48.962;9.018;2023-05-10T05:32:49;3.70;;;3.28;;
21239;SDS011;10778;48.962;9.018;2023-05-10T05:35:15;3.47;;;3.17;;
21239;SDS011;10778;48.962;9.018;2023-05-10T05:37:41;4.43;;;3.15;;
21239;SDS011;10778;48.962;9.018;2023-05-10T05:40:07;7.03;;;3.35;;
21239;SDS011;10778;48.962;9.018;2023-05-10T05:42:34;4.90;;;3.38;;
21239;SDS011;10778;48.962;9.018;2023-05-10T05:45:00;4.70;;;3.45;;
21239;SDS011;10778;48.962;9.018;2023-05-10T05:47:26;4.00;;;3.45;;
21239;SDS011;10778;48.962;9.018;2023-05-10T05:49:52;4.00;;;3.45;;
21239;SDS011;10778;48.962;9.018;2023-05-10T05:52:18;4.15;;;3.38;;
21239;SDS011;10778;48.962;9.018;2023-05-10T05:54:43;8.23;;;3.63;;
21239;SDS011;10778;48.962;9.018;2023-05-10T05:57:09;5.68;;;4.55;;
21239;SDS011;10778;48.962;9.018;2023-05-10T05:59:35;4.60;;;4.10;;
21239;SDS011;10778;48.962;9.018;2023-05-10T06:02:01;4.78;;;4.00;;
21239;SDS011;10778;48.962;9.018;2023-05-10T06:04:27;5.15;;;4.13;;
21239;SDS011;10778;48.962;9.018;2023-05-10T06:06:53;6.68;;;4.30;;
21239;SDS011;10778;48.962;9.018;2023-05-10T06:09:19;7.57;;;4.20;;
21239;SDS011;10778;48.962;9.018;2023-05-10T06:11:46;6.15;;;3.80;;
21239;SDS011;10778;48.962;9.018;2023-05-10T06:14:12;4.35;;;3.60;;
21239;SDS011;10778;48.962;9.018;2023-05-10T06:16:38;6.45;;;3.85;;
21239;SDS011;10778;48.962;9.018;2023-05-10T06:19:04;4.38;;;3.70;;
21239;SDS011;10778;48.962;9.018;2023-05-10T06:21:30;4.72;;;3.70;;
21239;SDS011;10778;48.962;9.018;2023-05-10T06:23:56;6.40;;;3.70;;
21239;SDS011;10778;48.962;9.018;2023-05-10T06:26:22;4.22;;;3.47;;
21239;SDS011;10778;48.962;9.018;2023-05-10T06:28:48;4.53;;;3.33;;
21239;SDS011;10778;48.962;9.018;2023-05-10T06:31:14;5.72;;;3.88;;
21239;SDS011;10778;48.962;9.018;2023-05-10T06:33:40;6.32;;;3.40;;
21239;SDS011;10778;48.962;9.018;2023-05-10T06:36:06;9.10;;;3.00;;
21239;SDS011;10778;48.962;9.018;2023-05-10T06:38:32;4.60;;;3.05;;
21239;SDS011;10778;48.962;9.018;2023-05-10T06:40:59;3.10;;;2.80;;
21239;SDS011;10778;48.962;9.018;2023-05-10T06:43:25;4.78;;;2.97;;
21239;SDS011;10778;48.962;9.018;2023-05-10T06:45:51;4.60;;;2.67;;
21239;SDS011;10778;48.962;9.018;2023-05-10T06:48:17;3.92;;;2.90;;
21239;SDS011;10778;48.962;9.018;2023-05-10T06:50:43;5.20;;;3.38;;
21239;SDS011;10778;48.962;9.018;2023-05-10T06:53:10;4.82;;;3.08;;
21239;SDS011;10778;48.962;9.018;2023-05-10T06:55:37;3.28;;;2.20;;
21239;SDS011;10778;48.962;9.018;2023-05-10T06:58:03;3.53;;;2.28;;
21239;SDS011;10778;48.962;9.018;2023-05-10T07:00:29;5.13;;;2.45;;
21239;SDS011;10778;48.962;9.018;2023-05-10T07:02:55;4.57;;;2.50;;
21239;SDS011;10778;48.962;9.018;2023-05-10T07:05:21;3.00;;;2.28;;
21239;SDS011;10778;48.962;9.018;2023-05-10T07:07:47;3.33;;;2.15;;
21239;SDS011;10778;48.962;9.018;2023-05-10T07:10:13;3.15;;;1.92;;
21239;SDS011;10778;48.962;9.018;2023-05-10T07:12:39;2.25;;;1.80;;
21239;SDS011;10778;48.962;9.018;2023-05-10T07:15:05;2.25;;;1.83;;
21239;SDS011;10778;48.962;9.018;2023-05-10T07:17:32;6.60;;;1.80;;
21239;SDS011;10778;48.962;9.018;2023-05-10T07:19:59;4.40;;;1.70;;
21239;SDS011;10778;48.962;9.018;2023-05-10T07:22:25;2.83;;;1.40;;
21239;SDS011;10778;48.962;9.018;2023-05-10T07:24:51;1.65;;;1.45;;
21239;SDS011;10778;48.962;9.018;2023-05-10T07:27:17;3.10;;;1.40;;
21239;SDS011;10778;48.962;9.018;2023-05-10T07:29:43;4.03;;;1.40;;
21239;SDS011;10778;48.962;9.018;2023-05-10T07:32:09;1.70;;;1.10;;
21239;SDS011;10778;48.962;9.018;2023-05-10T07:34:35;4.13;;;1.20;;
21239;SDS011;10778;48.962;9.018;2023-05-10T07:37:01;3.45;;;1.33;;
21239;SDS011;10778;48.962;9.018;2023-05-10T07:39:27;3.72;;;1.25;;
21239;SDS011;10778;48.962;9.018;2023-05-10T07:41:56;1.83;;;1.30;;
21239;SDS011;10778;48.962;9.018;2023-05-10T07:44:22;1.52;;;1.02;;
21239;SDS011;10778;48.962;9.018;2023-05-10T07:46:48;3.03;;;1.00;;
21239;SDS011;10778;48.962;9.018;2023-05-10T07:49:14;0.98;;;0.80;;
21239;SDS011;10778;48.962;9.018;2023-05-10T07:51:40;2.55;;;1.05;;
21239;SDS011;10778;48.962;9.018;2023-05-10T07:54:07;2.35;;;0.88;;
21239;SDS011;10778;48.962;9.018;2023-05-10T07:56:34;1.95;;;0.90;;
21239;SDS011;10778;48.962;9.018;2023-05-10T07:59:01;3.17;;;1.00;;
21239;SDS011;10778;48.962;9.018;2023-05-10T08:01:30;2.22;;;1.00;;
21239;SDS011;10778;48.962;9.018;2023-05-10T08:04:00;3.75;;;0.80;;
21239;SDS011;10778;48.962;9.018;2023-05-10T08:06:27;2.05;;;0.90;;
21239;SDS011;10778;48.962;9.018;2023-05-10T08:08:55;0.82;;;0.60;;
21239;SDS011;10778;48.962;9.018;2023-05-10T08:11:21;2.15;;;0.77;;
21239;SDS011;10778;48.962;9.018;2023-05-10T08:13:48;0.60;;;0.60;;
21239;SDS011;10778;48.962;9.018;2023-05-10T08:16:15;0.95;;;0.60;;
21239;SDS011;10778;48.962;9.018;2023-05-10T08:18:43;1.05;;;0.68;;
21239;SDS011;10778;48.962;9.018;2023-05-10T08:21:13;1.48;;;0.60;;
21239;SDS011;10778;48.962;9.018;2023-05-10T08:23:40;0.88;;;0.65;;
21239;SDS011;10778;48.962;9.018;2023-05-10T08:26:06;2.88;;;0.73;;
21239;SDS011;10778;48.962;9.018;2023-05-10T08:28:32;1.13;;;0.85;;
21239;SDS011;10778;48.962;9.018;2023-05-10T08:30:58;1.13;;;0.63;;
21239;SDS011;10778;48.962;9.018;2023-05-10T08:33:24;2.90;;;0.68;;
21239;SDS011;10778;48.962;9.018;2023-05-10T08:35:50;1.92;;;0.77;;
21239;SDS011;10778;48.962;9.018;2023-05-10T08:38:17;1.50;;;0.60;;
21239;SDS011;10778;48.962;9.018;2023-05-10T08:40:43;1.58;;;0.60;;
21239;SDS011;10778;48.962;9.018;2023-05-10T08:43:11;0.88;;;0.60;;
21239;SDS011;10778;48.962;9.018;2023-05-10T08:45:38;0.65;;;0.50;;
21239;SDS011;10778;48.962;9.018;2023-05-10T08:48:06;1.13;;;0.60;;
21239;SDS011;10778;48.962;9.018;2023-05-10T08:50:38;1.05;;;0.60;;
21239;SDS011;10778;48.962;9.018;2023-05-10T08:53:06;1.75;;;0.60;;
21239;SDS011;10778;48.962;9.018;2023-05-10T08:55:35;1.17;;;0.50;;
21239;SDS011;10778;48.962;9.018;2023-05-10T08:58:04;1.15;;;0.60;;
21239;SDS011;10778;48.962;9.018;2023-05-10T09:00:31;1.52;;;0.82;;
21239;SDS011;10778;48.962;9.018;2023-05-10T09:02:58;2.60;;;0.70;;
21239;SDS011;10778;48.962;9.018;2023-05-10T09:05:25;1.52;;;0.68;;
21239;SDS011;10778;48.962;9.018;2023-05-10T09:07:51;3.85;;;0.60;;
21239;SDS011;10778;48.962;9.018;2023-05-10T09:10:17;1.13;;;0.60;;
21239;SDS011;10778;48.962;9.018;2023-05-10T09:12:44;2.05;;;1.10;;
21239;SDS011;10778;48.962;9.018;2023-05-10T09:15:11;5.38;;;1.13;;
21239;SDS011;10778;48.962;9.018;2023-05-10T09:17:40;1.27;;;0.70;;
21239;SDS011;10778;48.962;9.018;2023-05-10T09:20:06;0.88;;;0.60;;
21239;SDS011;10778;48.962;9.018;2023-05-10T09:22:33;2.30;;;0.70;;
21239;SDS011;10778;48.962;9.018;2023-05-10T09:25:07;0.63;;;0.50;;
21239;SDS011;10778;48.962;9.018;2023-05-10T09:27:41;1.55;;;0.70;;
21239;SDS011;10778;48.962;9.018;2023-05-10T09:30:11;1.10;;;0.68;;
21239;SDS011;10778;48.962;9.018;2023-05-10T09:32:48;1.45;;;0.80;;
21239;SDS011;10778;48.962;9.018;2023-05-10T09:35:15;1.85;;;0.77;;
21239;SDS011;10778;48.962;9.018;2023-05-10T09:37:43;4.00;;;0.90;;
21239;SDS011;10778;48.962;9.018;2023-05-10T09:40:12;2.25;;;0.60;;
21239;SDS011;10778;48.962;9.018;2023-05-10T09:45:27;3.00;;;0.70;;
21239;SDS011;10778;48.962;9.018;2023-05-10T09:47:54;2.13;;;0.60;;
21239;SDS011;10778;48.962;9.018;2023-05-10T09:50:21;1.10;;;0.50;;
21239;SDS011;10778;48.962;9.018;2023-05-10T09:52:48;0.68;;;0.50;;
21239;SDS011;10778;48.962;9.018;2023-05-10T09:55:25;0.77;;;0.50;;
21239;SDS011;10778;48.962;9.018;2023-05-10T09:58:03;0.90;;;0.60;;
21239;SDS011;10778;48.962;9.018;2023-05-10T10:00:34;2.28;;;0.60;;
21239;SDS011;10778;48.962;9.018;2023-05-10T10:03:02;1.65;;;0.50;;
21239;SDS011;10778;48.962;9.018;2023-05-10T10:05:29;2.38;;;0.60;;
21239;SDS011;10778;48.962;9.018;2023-05-10T10:08:00;1.80;;;0.60;;
21239;SDS011;10778;48.962;9.018;2023-05-10T10:10:28;2.03;;;0.50;;
21239;SDS011;10778;48.962;9.018;2023-05-10T10:12:54;1.42;;;0.40;;
21239;SDS011;10778;48.962;9.018;2023-05-10T10:15:21;1.52;;;0.50;;
21239;SDS011;10778;48.962;9.018;2023-05-10T10:17:48;1.33;;;0.60;;
21239;SDS011;10778;48.962;9.018;2023-05-10T10:20:15;0.95;;;0.60;;
21239;SDS011;10778;48.962;9.018;2023-05-10T10:22:42;1.40;;;0.50;;
21239;SDS011;10778;48.962;9.018;2023-05-10T10:25:10;1.75;;;0.70;;
21239;SDS011;10778;48.962;9.018;2023-05-10T10:30:40;1.63;;;0.65;;
21239;SDS011;10778;48.962;9.018;2023-05-10T10:35:53;1.48;;;0.70;;
21239;SDS011;10778;48.962;9.018;2023-05-10T10:38:20;0.52;;;0.50;;
21239;SDS011;10778;48.962;9.018;2023-05-10T10:40:47;2.78;;;0.60;;
21239;SDS011;10778;48.962;9.018;2023-05-10T10:49:09;1.38;;;0.65;;
21239;SDS011;10778;48.962;9.018;2023-05-10T10:51:36;3.50;;;0.60;;
21239;SDS011;10778;48.962;9.018;2023-05-10T10:54:09;2.05;;;0.65;;
21239;SDS011;10778;48.962;9.018;2023-05-10T10:56:36;3.03;;;0.70;;
21239;SDS011;10778;48.962;9.018;2023-05-10T10:59:02;2.28;;;0.73;;
21239;SDS011;10778;48.962;9.018;2023-05-10T11:01:32;2.05;;;0.90;;
21239;SDS011;10778;48.962;9.018;2023-05-10T11:06:29;1.80;;;0.70;;
21239;SDS011;10778;48.962;9.018;2023-05-10T11:09:04;1.50;;;0.80;;
21239;SDS011;10778;48.962;9.018;2023-05-10T11:11:35;1.33;;;0.80;;
21239;SDS011;10778;48.962;9.018;2023-05-10T11:14:13;3.10;;;0.90;;
21239;SDS011;10778;48.962;9.018;2023-05-10T11:16:40;2.33;;;0.90;;
21239;SDS011;10778;48.962;9.018;2023-05-10T11:19:12;3.65;;;0.90;;
21239;SDS011;10778;48.962;9.018;2023-05-10T11:21:47;3.38;;;0.80;;
21239;SDS011;10778;48.962;9.018;2023-05-10T11:24:31;1.88;;;0.82;;
21239;SDS011;10778;48.962;9.018;2023-05-10T11:26:57;2.65;;;1.00;;
21239;SDS011;10778;48.962;9.018;2023-05-10T11:29:23;1.90;;;0.80;;
21239;SDS011;10778;48.962;9.018;2023-05-10T11:31:51;2.33;;;0.70;;
21239;SDS011;10778;48.962;9.018;2023-05-10T11:36:55;3.20;;;1.20;;
21239;SDS011;10778;48.962;9.018;2023-05-10T11:39:25;4.15;;;1.10;;
21239;SDS011;10778;48.962;9.018;2023-05-10T11:41:56;1.88;;;1.10;;
21239;SDS011;10778;48.962;9.018;2023-05-10T11:44:22;2.88;;;1.05;;
21239;SDS011;10778;48.962;9.018;2023-05-10T11:46:49;3.05;;;1.58;;
21239;SDS011;10778;48.962;9.018;2023-05-10T11:49:15;4.03;;;1.40;;
21239;SDS011;10778;48.962;9.018;2023-05-10T11:51:41;2.50;;;1.30;;
21239;SDS011;10778;48.962;9.018;2023-05-10T11:54:12;3.35;;;1.40;;
21239;SDS011;10778;48.962;9.018;2023-05-10T11:56:38;2.17;;;1.40;;
21239;SDS011;10778;48.962;9.018;2023-05-10T11:59:05;3.92;;;1.70;;
21239;SDS011;10778;48.962;9.018;2023-05-10T12:01:32;4.18;;;1.42;;
21239;SDS011;10778;48.962;9.018;2023-05-10T12:03:58;3.38;;;1.65;;
21239;SDS011;10778;48.962;9.018;2023-05-10T12:06:29;2.55;;;1.20;;
21239;SDS011;10778;48.962;9.018;2023-05-10T12:08:57;2.40;;;1.25;;
21239;SDS011;10778;48.962;9.018;2023-05-10T12:11:24;3.05;;;1.40;;
21239;SDS011;10778;48.962;9.018;2023-05-10T12:13:51;2.70;;;1.20;;
21239;SDS011;10778;48.962;9.018;2023-05-10T12:16:28;4.78;;;1.33;;
21239;SDS011;10778;48.962;9.018;2023-05-10T12:18:58;5.53;;;1.02;;
21239;SDS011;10778;48.962;9.018;2023-05-10T12:21:26;2.30;;;1.17;;
21239;SDS011;10778;48.962;9.018;2023-05-10T12:23:54;4.40;;;1.00;;
21239;SDS011;10778;48.962;9.018;2023-05-10T12:26:25;3.15;;;0.95;;
21239;SDS011;10778;48.962;9.018;2023-05-10T12:28:54;7.43;;;1.05;;
21239;SDS011;10778;48.962;9.018;2023-05-10T12:31:21;3.60;;;0.90;;
21239;SDS011;10778;48.962;9.018;2023-05-10T12:33:47;3.22;;;0.88;;
21239;SDS011;10778;48.962;9.018;2023-05-10T12:36:15;4.18;;;0.93;;
21239;SDS011;10778;48.962;9.018;2023-05-10T12:38:42;1.45;;;0.70;;
21239;SDS011;10778;48.962;9.018;2023-05-10T12:41:10;5.38;;;0.88;;
21239;SDS011;10778;48.962;9.018;2023-05-10T12:43:38;2.13;;;0.80;;
21239;SDS011;10778;48.962;9.018;2023-05-10T12:46:05;1.73;;;0.80;;
21239;SDS011;10778;48.962;9.018;2023-05-10T12:48:31;1.98;;;0.70;;
21239;SDS011;10778;48.962;9.018;2023-05-10T12:50:59;1.85;;;0.80;;
21239;SDS011;10778;48.962;9.018;2023-05-10T12:53:26;1.25;;;0.60;;
21239;SDS011;10778;48.962;9.018;2023-05-10T12:55:53;3.00;;;0.80;;
21239;SDS011;10778;48.962;9.018;2023-05-10T12:58:19;3.28;;;1.10;;
21239;SDS011;10778;48.962;9.018;2023-05-10T13:00:45;1.83;;;0.80;;
21239;SDS011;10778;48.962;9.018;2023-05-10T13:03:12;1.23;;;0.70;;
21239;SDS011;10778;48.962;9.018;2023-05-10T13:05:38;2.78;;;0.90;;
21239;SDS011;10778;48.962;9.018;2023-05-10T13:08:04;2.05;;;0.77;;
21239;SDS011;10778;48.962;9.018;2023-05-10T13:10:30;3.20;;;0.80;;
21239;SDS011;10778;48.962;9.018;2023-05-10T13:12:57;2.30;;;0.80;;
21239;SDS011;10778;48.962;9.018;2023-05-10T13:15:24;2.67;;;0.60;;
21239;SDS011;10778;48.962;9.018;2023-05-10T13:17:50;3.47;;;0.70;;
21239;SDS011;10778;48.962;9.018;2023-05-10T13:20:17;1.90;;;0.80;;
21239;SDS011;10778;48.962;9.018;2023-05-10T13:22:43;2.45;;;0.70;;
21239;SDS011;10778;48.962;9.018;2023-05-10T13:25:10;3.75;;;0.88;;
21239;SDS011;10778;48.962;9.018;2023-05-10T13:27:37;4.07;;;0.80;;
21239;SDS011;10778;48.962;9.018;2023-05-10T13:30:04;2.80;;;0.90;;
21239;SDS011;10778;48.962;9.018;2023-05-10T13:32:32;2.17;;;0.80;;
21239;SDS011;10778;48.962;9.018;2023-05-10T13:34:58;1.67;;;0.70;;
21239;SDS011;10778;48.962;9.018;2023-05-10T13:37:24;3.65;;;0.80;;
21239;SDS011;10778;48.962;9.018;2023-05-10T13:39:50;2.22;;;0.68;;
21239;SDS011;10778;48.962;9.018;2023-05-10T13:42:17;3.42;;;0.80;;
21239;SDS011;10778;48.962;9.018;2023-05-10T13:44:44;3.58;;;0.73;;
21239;SDS011;10778;48.962;9.018;2023-05-10T13:47:10;3.55;;;0.80;;
21239;SDS011;10778;48.962;9.018;2023-05-10T13:49:36;1.90;;;0.70;;
21239;SDS011;10778;48.962;9.018;2023-05-10T13:52:03;1.40;;;0.73;;
21239;SDS011;10778;48.962;9.018;2023-05-10T13:54:35;4.47;;;1.20;;
21239;SDS011;10778;48.962;9.018;2023-05-10T13:57:03;5.60;;;0.88;;
21239;SDS011;10778;48.962;9.018;2023-05-10T13:59:30;1.95;;;0.70;;
21239;SDS011;10778;48.962;9.018;2023-05-10T14:01:59;2.20;;;0.80;;
21239;SDS011;10778;48.962;9.018;2023-05-10T14:04:28;1.17;;;0.60;;
21239;SDS011;10778;48.962;9.018;2023-05-10T14:06:54;2.05;;;0.60;;
21239;SDS011;10778;48.962;9.018;2023-05-10T14:09:20;2.17;;;0.60;;
21239;SDS011;10778;48.962;9.018;2023-05-10T14:11:46;3.67;;;0.70;;
21239;SDS011;10778;48.962;9.018;2023-05-10T14:14:13;2.45;;;0.60;;
21239;SDS011;10778;48.962;9.018;2023-05-10T14:16:42;1.75;;;0.60;;
21239;SDS011;10778;48.962;9.018;2023-05-10T14:19:10;1.80;;;0.57;;
21239;SDS011;10778;48.962;9.018;2023-05-10T14:21:37;2.97;;;0.70;;
21239;SDS011;10778;48.962;9.018;2023-05-10T14:24:04;2.17;;;0.77;;
21239;SDS011;10778;48.962;9.018;2023-05-10T14:26:30;3.88;;;0.80;;
21239;SDS011;10778;48.962;9.018;2023-05-10T14:28:57;1.52;;;0.70;;
21239;SDS011;10778;48.962;9.018;2023-05-10T14:31:23;3.88;;;0.75;;
21239;SDS011;10778;48.962;9.018;2023-05-10T14:33:50;4.28;;;0.70;;
21239;SDS011;10778;48.962;9.018;2023-05-10T14:36:17;2.38;;;0.70;;
21239;SDS011;10778;48.962;9.018;2023-05-10T14:38:43;2.00;;;0.70;;
21239;SDS011;10778;48.962;9.018;2023-05-10T14:41:09;2.50;;;0.60;;
21239;SDS011;10778;48.962;9.018;2023-05-10T14:43:40;1.90;;;0.65;;
21239;SDS011;10778;48.962;9.018;2023-05-10T14:46:06;1.25;;;0.50;;
21239;SDS011;10778;48.962;9.018;2023-05-10T14:48:33;2.15;;;0.70;;
21239;SDS011;10778;48.962;9.018;2023-05-10T14:50:59;3.70;;;0.68;;
21239;SDS011;10778;48.962;9.018;2023-05-10T14:53:25;3.28;;;0.90;;
21239;SDS011;10778;48.962;9.018;2023-05-10T14:55:51;2.25;;;0.60;;
21239;SDS011;10778;48.962;9.018;2023-05-10T14:58:17;2.92;;;0.80;;
21239;SDS011;10778;48.962;9.018;2023-05-10T15:00:43;3.03;;;1.85;;
21239;SDS011;10778;48.962;9.018;2023-05-10T15:03:09;2.22;;;1.50;;
21239;SDS011;10778;48.962;9.018;2023-05-10T15:05:35;3.67;;;0.90;;
21239;SDS011;10778;48.962;9.018;2023-05-10T15:08:03;4.22;;;1.00;;
21239;SDS011;10778;48.962;9.018;2023-05-10T15:10:30;3.40;;;1.00;;
21239;SDS011;10778;48.962;9.018;2023-05-10T15:12:56;3.75;;;0.90;;
21239;SDS011;10778;48.962;9.018;2023-05-10T15:15:22;3.55;;;0.95;;
21239;SDS011;10778;48.962;9.018;2023-05-10T15:17:48;2.45;;;1.30;;
21239;SDS011;10778;48.962;9.018;2023-05-10T15:20:14;2.05;;;0.80;;
21239;SDS011;10778;48.962;9.018;2023-05-10T15:22:40;2.15;;;1.00;;
21239;SDS011;10778;48.962;9.018;2023-05-10T15:25:06;2.67;;;1.15;;